Time;durP1;ratioP1;P1;durP2;ratioP2;P2;SDS_P1;SDS_P2;PMS_P1;PMS_P2;Temp;Humidity;BMP_temperature;BMP_pressure;BME280_temperature;BME280_humidity;BME280_pressure;Samples;Min_cycle;Max_cycle;Signal;HPM_P1;HPM_P2
2022/04/27 00:03:11;;;;;;;75.67;38.23;;;;;;;10.96;72.82;101069.09;5218394;56;1141313;-76
2022/04/27 00:08:17;;;;;;;92.17;42.33;;;;;;;10.97;73.03;101071.25;5143266;56;1141412;-76
2022/04/27 00:13:23;;;;;;;86.70;41.20;;;;;;;10.88;72.87;101075.38;5132845;57;1141101;-73
2022/04/27 00:18:28;;;;;;;107.47;47.30;;;;;;;10.52;72.61;101072.17;5132739;57;1141371;-72
2022/04/27 00:23:35;;;;;;;95.00;42.93;;;;;;;10.52;72.61;101072.17;5132872;57;1143279;-70
2022/04/27 00:28:41;;;;;;;88.40;42.83;;;;;;;10.14;72.70;101091.43;5159533;56;1141064;-76
2022/04/27 00:33:49;;;;;;;85.93;41.47;;;;;;;10.03;73.94;101088.66;5162466;56;1139085;-78
2022/04/27 00:38:55;;;;;;;80.37;36.97;;;;;;;10.13;74.66;101087.56;5160812;57;1138968;-75
2022/04/27 00:44:01;;;;;;;84.87;36.37;;;;;;;10.19;74.80;101088.52;5180455;57;22099;-75
2022/04/27 00:49:07;;;;;;;68.13;32.83;;;;;;;10.12;74.56;101087.19;5160815;57;1138996;-75
2022/04/27 00:54:13;;;;;;;78.02;30.48;;;;;;;10.12;75.26;101089.36;5160660;57;1143165;-71
2022/04/27 00:59:19;;;;;;;62.03;29.43;;;;;;;10.20;75.45;101083.13;5160737;57;1143186;-74
2022/04/27 01:04:26;;;;;;;62.53;27.93;;;;;;;10.20;75.09;101087.09;5148119;57;1143381;-74
2022/04/27 01:09:33;;;;;;;55.10;28.73;;;;;;;10.27;75.66;101084.02;5131515;57;1143241;-75
2022/04/27 01:14:45;;;;;;;52.23;26.47;;;;;;;10.33;75.83;101088.44;5131264;57;1143363;-76
2022/04/27 01:19:51;;;;;;;47.10;22.37;;;;;;;10.39;75.58;101094.61;5131269;57;1143253;-76
2022/04/27 01:24:57;;;;;;;47.40;23.20;;;;;;;10.39;75.52;101094.61;5128841;57;1143442;-74
2022/04/27 01:30:03;;;;;;;68.83;31.83;;;;;;;10.35;75.56;101101.09;5079675;58;1143140;-73
2022/04/27 01:35:09;;;;;;;58.87;28.63;;;;;;;10.19;75.39;101109.67;5079589;57;1143220;-73
2022/04/27 01:40:15;;;;;;;61.63;29.53;;;;;;;10.16;75.91;101108.03;5079623;57;1143180;-71
2022/04/27 01:45:21;;;;;;;63.60;30.00;;;;;;;10.08;76.18;101112.97;5079634;57;1143299;-75
2022/04/27 01:50:26;;;;;;;65.45;31.50;;;;;;;10.05;76.35;101111.87;5079418;57;1143213;-73
2022/04/27 01:55:32;;;;;;;58.10;27.30;;;;;;;9.87;75.95;101111.28;5079620;57;1143457;-74
2022/04/27 02:00:38;;;;;;;64.93;29.40;;;;;;;9.72;76.13;101125.48;5079606;57;1141193;-74
2022/04/27 02:05:46;;;;;;;72.77;29.60;;;;;;;9.49;76.20;101118.16;5120029;56;1141349;-72
2022/04/27 02:10:52;;;;;;;69.73;31.67;;;;;;;9.30;76.54;101118.50;5155736;57;1141373;-73
2022/04/27 02:16:00;;;;;;;73.23;32.50;;;;;;;9.31;77.32;101131.23;5155701;57;1141342;-74
2022/04/27 02:21:07;;;;;;;76.40;33.33;;;;;;;9.40;78.20;101125.36;5185670;56;1141091;-70
2022/04/27 02:26:13;;;;;;;76.50;36.23;;;;;;;9.54;78.29;101130.61;5153473;56;1141156;-76
2022/04/27 02:31:19;;;;;;;82.70;35.43;;;;;;;9.60;78.17;101127.59;5072052;58;1141143;-76
2022/04/27 02:36:24;;;;;;;70.87;26.37;;;;;;;9.62;78.06;101128.34;5071933;57;1141063;-78
2022/04/27 02:41:30;;;;;;;55.07;24.30;;;;;;;9.61;77.73;101133.72;5071962;58;1141385;-74
2022/04/27 02:46:37;;;;;;;61.67;26.63;;;;;;;9.56;77.53;101133.16;5071985;57;1141119;-76
2022/04/27 02:51:49;;;;;;;48.50;23.00;;;;;;;9.40;76.87;101139.88;5071928;58;1141077;-76
2022/04/27 02:56:57;;;;;;;60.73;21.90;;;;;;;9.21;76.64;101138.00;5072277;57;1139198;-74
2022/04/27 03:02:03;;;;;;;49.67;17.87;;;;;;;9.07;77.27;101141.02;5072216;57;1139030;-74
2022/04/27 03:07:10;;;;;;;36.90;14.23;;;;;;;9.00;77.31;101133.13;5082877;57;1139045;-72
2022/04/27 03:12:17;;;;;;;32.87;12.10;;;;;;;8.84;77.26;101142.06;5107541;57;1139001;-72
2022/04/27 03:17:24;;;;;;;28.00;13.13;;;;;;;8.83;77.65;101138.58;5132315;57;1141110;-77
2022/04/27 03:22:31;;;;;;;39.70;13.80;;;;;;;8.85;77.68;101143.76;5132288;57;1141408;-70
2022/04/27 03:27:36;;;;;;;33.63;14.30;;;;;;;8.91;78.11;101146.86;5214285;56;1141053;-72
2022/04/27 03:32:42;;;;;;;41.33;14.60;;;;;;;8.96;78.14;101153.19;5218279;56;1141073;-75
2022/04/27 03:37:48;;;;;;;31.33;14.67;;;;;;;8.99;78.09;101150.36;5236304;55;1141015;-74
2022/04/27 03:42:54;;;;;;;24.00;13.43;;;;;;;9.03;77.99;101156.66;5176325;55;1140397;-71
2022/04/27 03:48:00;;;;;;;31.50;13.40;;;;;;;9.00;77.41;101165.25;5217850;55;1139207;-70
2022/04/27 03:53:06;;;;;;;49.33;14.57;;;;;;;8.79;77.33;101173.98;5218646;55;1136896;-74
2022/04/27 03:58:13;;;;;;;51.93;15.53;;;;;;;8.73;78.22;101171.22;5223766;56;1136915;-72
2022/04/27 04:03:19;;;;;;;50.67;15.77;;;;;;;8.76;78.97;101171.52;5179451;56;1136861;-74
2022/04/27 04:08:25;;;;;;;36.50;13.10;;;;;;;8.78;79.16;101181.05;5137839;57;1139103;-70
2022/04/27 04:13:31;;;;;;;26.57;11.77;;;;;;;8.78;79.16;101181.05;5200247;56;1139101;-72
2022/04/27 04:18:42;;;;;;;31.23;13.50;;;;;;;8.86;79.46;101192.94;5153823;56;1139030;-72
2022/04/27 04:24:08;;;;;;;34.37;16.07;;;;;;;8.86;79.75;101193.75;5243136;55;1139226;-73
2022/04/27 04:29:15;;;;;;;22.67;12.60;;;;;;;8.87;79.97;101198.56;5308873;55;1139170;-75
2022/04/27 04:34:21;;;;;;;60.73;20.93;;;;;;;8.81;80.17;101212.52;5310894;55;1139000;-76
2022/04/27 04:39:27;;;;;;;39.97;18.30;;;;;;;8.56;80.03;101221.93;5310731;55;1139230;-75
2022/04/27 04:44:33;;;;;;;42.83;17.33;;;;;;;8.58;81.26;101231.92;5310598;55;1139001;-74
2022/04/27 04:49:53;;;;;;;49.30;13.25;;;;;;;8.63;81.12;101239.11;5325423;55;1141199;-73
2022/04/27 04:55:16;;;;;;;36.63;11.53;;;;;;;8.76;80.85;101233.03;5281317;55;1141101;-76
2022/04/27 05:00:40;;;;;;;27.23;10.40;;;;;;;8.88;80.47;101243.78;5310626;55;1141094;-78
2022/04/27 05:05:50;;;;;;;19.40;9.67;;;;;;;8.95;79.77;101242.50;5299047;55;1141143;-74
2022/04/27 05:11:01;;;;;;;21.17;9.93;;;;;;;8.97;79.30;101248.53;5302656;55;1139075;-75
2022/04/27 05:16:08;;;;;;;14.70;8.37;;;;;;;9.03;78.53;101247.69;5305134;55;1136835;-75
2022/04/27 05:21:16;;;;;;;14.70;8.70;;;;;;;9.11;78.49;101257.80;5303902;55;1136885;-75
2022/04/27 05:26:32;;;;;;;20.13;9.13;;;;;;;9.18;78.37;101267.03;5239707;55;1136877;-70
2022/04/27 05:31:57;;;;;;;43.68;14.40;;;;;;;9.25;78.30;101280.25;5218695;56;1137029;-72
2022/04/27 05:37:05;;;;;;;54.47;12.53;;;;;;;9.36;78.44;101279.12;5207476;56;1138949;-76
2022/04/27 05:42:18;;;;;;;16.23;9.10;;;;;;;9.38;77.78;101278.57;5220559;55;1138933;-73
2022/04/27 05:47:29;;;;;;;26.17;8.80;;;;;;;9.45;77.75;101285.66;5216876;55;1136860;-73
2022/04/27 05:53:00;;;;;;;22.00;7.13;;;;;;;9.46;77.64;101292.17;5051054;58;1139078;-70
2022/04/27 05:58:25;;;;;;;21.20;9.27;;;;;;;9.50;77.49;101302.05;5049991;58;1137081;-77
2022/04/27 06:03:36;;;;;;;21.17;9.03;;;;;;;9.52;77.52;101315.55;5045962;58;1136927;-74
2022/04/27 06:08:43;;;;;;;31.17;9.03;;;;;;;9.51;76.68;101323.56;5049901;58;1136918;-71
2022/04/27 06:13:52;;;;;;;77.77;11.53;;;;;;;9.58;77.36;101312.17;5049803;58;1136994;-74
2022/04/27 06:19:01;;;;;;;22.67;7.67;;;;;;;9.60;77.12;101319.06;5023028;58;1139150;-75
2022/04/27 06:24:08;;;;;;;24.63;10.00;;;;;;;9.66;76.31;101322.63;5208529;55;1136886;-72
2022/04/27 06:29:14;;;;;;;18.10;7.77;;;;;;;9.70;76.83;101327.27;5218370;56;1138992;-71
2022/04/27 06:34:22;;;;;;;17.70;8.33;;;;;;;9.74;76.44;101332.74;5217876;56;1137085;-73
2022/04/27 06:39:29;;;;;;;23.90;7.90;;;;;;;9.77;76.60;101332.56;5218185;56;1136927;-72
2022/04/27 06:44:36;;;;;;;18.40;6.93;;;;;;;9.82;76.31;101337.08;5143455;56;1136882;-75
2022/04/27 06:50:00;;;;;;;22.83;7.83;;;;;;;9.93;77.37;101343.04;5141956;56;1136941;-75
2022/04/27 06:55:18;;;;;;;13.03;7.97;;;;;;;10.09;77.28;101356.50;5120664;57;21141;-74
2022/04/27 07:00:26;;;;;;;14.47;6.90;;;;;;;10.22;77.20;101355.32;5140758;56;1137198;-72
2022/04/27 07:05:31;;;;;;;14.45;6.58;;;;;;;10.35;76.75;101358.03;5079712;57;1141236;-74
2022/04/27 07:10:37;;;;;;;15.78;7.78;;;;;;;10.38;76.06;101358.70;5132868;56;1141337;-73
2022/04/27 07:15:43;;;;;;;15.23;8.40;;;;;;;10.42;75.98;101360.65;5133160;57;1141096;-73
2022/04/27 07:20:49;;;;;;;12.87;7.50;;;;;;;10.42;75.41;101368.11;5132881;57;1141083;-73
2022/04/27 07:25:54;;;;;;;22.83;7.97;;;;;;;10.49;75.89;101371.23;5132971;57;1141039;-72
2022/04/27 07:31:00;;;;;;;20.17;8.73;;;;;;;10.54;75.92;101366.51;5132979;57;1141254;-74
2022/04/27 07:36:07;;;;;;;12.98;8.08;;;;;;;10.66;76.03;101371.48;5132079;57;1141044;-73
2022/04/27 07:41:13;;;;;;;12.53;7.70;;;;;;;10.77;75.98;101383.53;5128245;57;1141127;-72
2022/04/27 07:46:19;;;;;;;10.17;6.13;;;;;;;10.94;76.79;101381.97;5129161;57;1141087;-74
2022/04/27 07:51:24;;;;;;;41.50;8.50;;;;;;;11.12;76.04;101392.68;5137785;57;1141171;-73
2022/04/27 07:56:30;;;;;;;30.73;7.27;;;;;;;11.24;75.50;101392.33;5160770;57;1141074;-75
2022/04/27 08:01:36;;;;;;;9.03;5.43;;;;;;;11.38;74.17;101400.20;5160523;57;1141188;-77
2022/04/27 08:06:42;;;;;;;9.43;6.13;;;;;;;11.54;74.79;101395.58;5238374;56;1139578;-75
2022/04/27 08:11:48;;;;;;;11.43;7.33;;;;;;;11.71;74.88;101401.06;5213031;56;1139338;-75
2022/04/27 08:16:58;;;;;;;10.83;6.23;;;;;;;11.84;73.62;101407.72;5215016;56;1141105;-73
2022/04/27 08:22:02;;;;;;;10.73;6.13;;;;;;;11.98;73.00;101408.46;5218271;56;1141109;-77
2022/04/27 08:27:08;;;;;;;12.00;6.63;;;;;;;12.17;73.43;101405.38;5154663;56;1141178;-74
2022/04/27 08:32:14;;;;;;;11.87;6.20;;;;;;;12.38;70.05;101403.48;5182441;56;1141250;-74
2022/04/27 08:37:20;;;;;;;22.67;6.87;;;;;;;12.51;71.25;101403.85;5218464;56;1141375;-71
2022/04/27 08:42:26;;;;;;;16.40;7.67;;;;;;;12.61;69.54;101400.89;5186342;56;1141588;-75
2022/04/27 08:47:33;;;;;;;10.77;7.07;;;;;;;12.76;69.65;101406.05;5129951;57;1141376;-76
2022/04/27 08:52:40;;;;;;;13.97;7.33;;;;;;;12.89;69.57;101402.86;5132419;57;1141679;-72
2022/04/27 08:57:48;;;;;;;11.83;6.67;;;;;;;12.99;66.87;101412.69;5132646;57;1141353;-74
2022/04/27 09:02:56;;;;;;;25.90;15.48;;;;;;;13.05;65.25;101415.39;5132443;57;1140986;-77
2022/04/27 09:08:01;;;;;;;35.78;17.55;;;;;;;13.12;65.07;101413.98;5204036;56;1143119;-77
2022/04/27 09:13:07;;;;;;;18.07;9.20;;;;;;;13.32;63.91;101423.99;5127194;56;1143317;-76
2022/04/27 09:23:41;;;;;;;8.78;4.25;;;;;;;14.11;59.96;101409.56;5188988;56;1139089;-73
2022/04/27 09:28:53;;;;;;;13.80;5.97;;;;;;;14.58;59.57;101413.81;5164275;56;1138959;-73
2022/04/27 09:34:01;;;;;;;10.73;5.33;;;;;;;14.77;59.37;101408.23;5230721;55;1141041;-73
2022/04/27 09:39:08;;;;;;;11.88;8.95;;;;;;;14.91;58.65;101409.77;5242490;55;1141049;-77
2022/04/27 09:44:34;;;;;;;8.63;4.50;;;;;;;15.06;55.41;101413.84;5242485;55;1139127;-71
2022/04/27 09:49:43;;;;;;;9.40;4.83;;;;;;;15.15;57.15;101410.89;5235123;55;1137153;-73
2022/04/27 09:54:50;;;;;;;4.67;4.20;;;;;;;15.39;57.67;101413.35;5226608;55;1137183;-76
2022/04/27 09:59:56;;;;;;;163.37;100.13;;;;;;;15.80;58.59;101407.21;5241684;55;1136897;-73
2022/04/27 10:05:02;;;;;;;63.87;51.27;;;;;;;16.01;54.14;101401.38;5186641;55;1145342;-73
2022/04/27 10:10:09;;;;;;;18.57;4.70;;;;;;;16.05;52.78;101412.61;5176436;56;1141109;-74
2022/04/27 10:15:15;;;;;;;9.60;5.60;;;;;;;16.07;54.23;101406.66;5140797;56;1139030;-72
2022/04/27 10:20:35;;;;;;;10.60;3.70;;;;;;;16.31;54.62;101403.69;5128838;57;1137240;-72
2022/04/27 10:25:41;;;;;;;10.47;4.03;;;;;;;16.43;55.75;101393.27;5147268;56;1139523;-74
2022/04/27 10:30:46;;;;;;;10.23;4.27;;;;;;;16.62;56.00;101401.83;5158715;56;1139784;-74
2022/04/27 10:35:52;;;;;;;13.73;3.23;;;;;;;16.56;54.85;101401.02;5155989;56;1137169;-74
2022/04/27 10:41:05;;;;;;;22.50;5.10;;;;;;;16.50;53.95;101401.91;5155845;56;1137420;-74
2022/04/27 10:46:38;;;;;;;;;;;;;;;16.46;52.10;101395.67;5159713;56;1141225;-71
2022/04/27 10:52:07;;;;;;;4.90;3.90;;;;;;;16.36;53.39;101404.11;5155693;56;976259;-74
2022/04/27 10:57:21;;;;;;;3.67;3.00;;;;;;;16.28;53.16;101405.28;5152144;56;1136947;-75
2022/04/27 11:02:41;;;;;;;6.30;4.20;;;;;;;16.14;52.03;101403.34;5219124;56;1138965;-75
2022/04/27 11:08:06;;;;;;;13.50;4.00;;;;;;;16.10;51.56;101410.40;5219029;56;1139012;-74
2022/04/27 11:13:12;;;;;;;6.27;3.87;;;;;;;15.99;52.67;101410.48;5094803;56;1141094;-75
2022/04/27 11:18:18;;;;;;;13.70;5.03;;;;;;;15.95;50.77;101406.38;5099373;57;1138964;-74
2022/04/27 11:23:24;;;;;;;5.80;3.97;;;;;;;15.95;52.30;101403.72;5146249;57;1141412;-71
2022/04/27 11:28:31;;;;;;;7.80;6.20;;;;;;;15.96;50.80;101403.59;5103279;57;1139250;-73
2022/04/27 11:33:42;;;;;;;7.73;4.20;;;;;;;15.89;49.43;101403.74;5173386;56;1139372;-72
2022/04/27 11:38:46;;;;;;;5.23;3.60;;;;;;;15.96;51.36;101406.25;5217787;56;1139535;-72
2022/04/27 11:43:57;;;;;;;4.77;3.83;;;;;;;16.11;50.83;101404.09;5218174;55;1138919;-75
2022/04/27 11:49:03;;;;;;;9.27;4.27;;;;;;;16.25;48.84;101398.88;5170407;56;1138992;-75
2022/04/27 11:54:09;;;;;;;13.43;4.83;;;;;;;16.33;48.79;101395.06;5132430;56;1139254;-71
2022/04/27 11:59:14;;;;;;;4.93;3.40;;;;;;;16.45;49.47;101389.48;5132861;56;1141509;-78
2022/04/27 12:04:21;;;;;;;7.26;3.94;;;;;;;16.81;47.73;101398.72;5141399;56;1139064;-71
2022/04/27 12:09:27;;;;;;;4.23;3.77;;;;;;;17.02;49.49;101394.61;5218545;56;1138995;-78
2022/04/27 12:14:33;;;;;;;7.57;3.23;;;;;;;17.09;49.63;101385.56;5218232;56;1139100;-75
2022/04/27 12:19:39;;;;;;;79.70;57.67;;;;;;;17.04;48.52;101385.13;5218560;56;1138995;-73
2022/04/27 12:24:46;;;;;;;46.53;26.47;;;;;;;16.93;49.11;101383.92;5218499;56;1141097;-71
2022/04/27 12:29:55;;;;;;;317.57;182.83;;;;;;;16.89;48.80;101384.69;5225195;55;1141391;-73
2022/04/27 12:40:33;;;;;;;4.47;4.07;;;;;;;16.91;49.57;101376.53;5132603;57;1141102;-74
2022/04/27 12:45:40;;;;;;;8.90;3.30;;;;;;;17.17;49.32;101372.32;5132794;57;1136941;-76
2022/04/27 12:50:49;;;;;;;6.27;3.43;;;;;;;17.38;48.55;101364.16;5132795;57;1136965;-79
2022/04/27 12:56:04;;;;;;;18.97;3.97;;;;;;;17.32;47.99;101363.38;5132699;56;1136959;-78
2022/04/27 13:01:28;;;;;;;4.16;3.30;;;;;;;17.28;48.56;101361.97;5132717;57;1139047;-75
2022/04/27 13:06:34;;;;;;;6.08;3.72;;;;;;;17.17;46.92;101365.64;5185428;56;1138959;-76
2022/04/27 13:11:58;;;;;;;5.60;3.30;;;;;;;17.04;44.68;101363.74;5090808;56;1139028;-77
2022/04/27 13:17:04;;;;;;;6.03;3.30;;;;;;;16.93;45.64;101364.73;5210409;56;1139142;-74
2022/04/27 13:22:10;;;;;;;3.80;3.03;;;;;;;16.81;45.75;101363.98;5132651;56;1139042;-77
2022/04/27 13:27:16;;;;;;;5.77;3.53;;;;;;;16.78;46.45;101366.96;5199533;56;1138979;-77
2022/04/27 13:32:23;;;;;;;6.67;2.47;;;;;;;16.71;46.31;101363.63;5210293;56;1138973;-78
2022/04/27 13:37:29;;;;;;;7.03;3.10;;;;;;;16.58;46.31;101364.34;5164354;56;1139008;-79
2022/04/27 13:42:35;;;;;;;7.47;2.60;;;;;;;16.50;46.15;101362.34;5103389;56;1138983;-79
2022/04/27 13:47:41;;;;;;;12.07;3.90;;;;;;;16.44;46.77;101362.91;5203869;55;1138984;-78
2022/04/27 13:52:46;;;;;;;40.80;22.33;;;;;;;16.47;48.03;101360.82;5224267;55;1141049;-75
2022/04/27 13:57:54;;;;;;;10.07;4.63;;;;;;;16.46;47.25;101351.61;5240346;56;1143100;-75
2022/04/27 14:02:59;;;;;;;11.97;3.27;;;;;;;16.51;48.27;101364.03;5218517;55;1141099;-72
2022/04/27 14:08:06;;;;;;;22.37;6.63;;;;;;;16.51;48.69;101358.20;5233686;55;1141029;-72
2022/04/27 14:13:13;;;;;;;16.43;9.80;;;;;;;16.55;48.77;101357.45;5210944;56;1141051;-74
2022/04/27 14:18:19;;;;;;;20.63;13.00;;;;;;;16.60;48.92;101351.70;5156475;56;1141209;-76
2022/04/27 14:23:25;;;;;;;16.50;3.63;;;;;;;16.61;47.76;101354.73;5155657;56;1143150;-75
2022/04/27 14:28:31;;;;;;;3.50;3.07;;;;;;;16.64;47.70;101354.50;5155434;56;1141245;-75
2022/04/27 14:33:37;;;;;;;10.27;5.47;;;;;;;16.66;47.06;101353.84;5155965;56;1138464;-76
2022/04/27 14:38:43;;;;;;;11.60;5.13;;;;;;;16.58;47.09;101353.67;5156014;56;1141087;-75
2022/04/27 14:43:49;;;;;;;15.87;3.40;;;;;;;16.66;46.95;101352.50;5154651;57;1141149;-81
2022/04/27 14:48:55;;;;;;;21.77;9.80;;;;;;;16.84;46.72;101353.52;5155669;56;1141083;-79
2022/04/27 14:54:00;;;;;;;4.10;3.10;;;;;;;17.04;47.11;101347.70;5153871;56;1141040;-78
2022/04/27 14:59:07;;;;;;;4.57;2.70;;;;;;;17.16;45.49;101336.72;5155914;56;1138872;-73
2022/04/27 15:04:12;;;;;;;9.70;2.90;;;;;;;17.15;45.65;101342.20;5154910;56;1139249;-77
2022/04/27 15:09:18;;;;;;;4.07;3.17;;;;;;;17.10;45.86;101342.66;5155915;56;1139066;-75
2022/04/27 15:14:23;;;;;;;4.77;3.30;;;;;;;17.08;45.32;101337.94;5157027;55;1139079;-73
2022/04/27 15:19:29;;;;;;;4.60;3.53;;;;;;;17.04;43.71;101340.53;5236309;56;1138969;-81
2022/04/27 15:24:35;;;;;;;5.37;3.83;;;;;;;17.11;44.78;101346.17;5221441;56;1139008;-78
2022/04/27 15:29:41;;;;;;;4.80;3.27;;;;;;;17.20;43.63;101347.50;5173905;56;1138999;-75
2022/04/27 15:34:47;;;;;;;10.13;3.00;;;;;;;17.29;43.84;101341.77;5131944;57;1138954;-72
2022/04/27 15:39:53;;;;;;;9.47;3.20;;;;;;;17.37;43.61;101342.41;5134577;57;1141016;-77
2022/04/27 15:44:59;;;;;;;6.50;3.43;;;;;;;17.44;44.27;101345.70;5162375;56;1138939;-72
2022/04/27 15:50:06;;;;;;;8.87;3.50;;;;;;;17.47;42.75;101344.57;5172189;56;1138962;-79
2022/04/27 15:55:14;;;;;;;5.07;3.17;;;;;;;17.34;42.65;101345.37;5205316;56;1139420;-75
2022/04/27 16:00:20;;;;;;;12.90;6.60;;;;;;;17.27;44.24;101342.41;5221699;56;1138952;-73
2022/04/27 16:05:26;;;;;;;24.27;10.87;;;;;;;17.22;44.26;101344.68;5218413;56;1141235;-72
2022/04/27 16:10:32;;;;;;;6.73;4.87;;;;;;;17.16;43.70;101339.40;5221608;56;1141023;-73
2022/04/27 16:15:37;;;;;;;10.13;4.73;;;;;;;17.01;44.56;101347.48;5221906;56;1136971;-71
2022/04/27 16:23:07;;;;;;;16.90;6.43;;;;;;;16.98;44.10;101348.25;5218840;56;1139260;-78
2022/04/27 16:25:51;;;;;;;106.27;62.80;;;;;;;16.85;44.88;101343.19;5176106;56;1139065;-78
2022/04/27 16:30:57;;;;;;;44.07;24.03;;;;;;;16.85;44.92;101352.05;5151261;56;1143167;-72
2022/04/27 16:36:03;;;;;;;60.27;41.57;;;;;;;16.82;45.30;101349.65;5182784;56;1141008;-73
2022/04/27 16:41:09;;;;;;;54.37;38.97;;;;;;;16.75;44.67;101349.87;5280038;55;1141155;-76
2022/04/27 16:46:15;;;;;;;13.70;8.00;;;;;;;16.69;45.55;101354.42;5187623;55;1141008;-70
2022/04/27 16:51:21;;;;;;;12.17;10.40;;;;;;;16.67;45.01;101352.86;5094614;55;1139022;-79
2022/04/27 16:56:27;;;;;;;25.07;10.93;;;;;;;16.67;45.84;101352.37;5124726;56;1141342;-76
2022/04/27 17:01:33;;;;;;;32.83;23.20;;;;;;;16.68;46.19;101351.39;5240223;55;1141134;-73
2022/04/27 17:06:39;;;;;;;16.00;10.23;;;;;;;16.69;46.00;101357.58;5233280;55;1141088;-76
2022/04/27 17:11:44;;;;;;;14.23;5.60;;;;;;;16.61;46.23;101360.92;5289656;55;1141079;-77
2022/04/27 17:16:50;;;;;;;26.37;13.80;;;;;;;16.54;46.04;101368.63;5225864;55;1138989;-74
2022/04/27 17:21:56;;;;;;;70.13;40.53;;;;;;;16.48;46.32;101371.02;5156058;56;1141195;-79
2022/04/27 17:32:26;;;;;;;47.40;23.93;;;;;;;16.33;46.59;101375.88;5156062;56;1139060;-81
2022/04/27 17:37:32;;;;;;;19.87;9.37;;;;;;;16.26;47.06;101381.39;5156074;56;1143146;-77
2022/04/27 17:42:38;;;;;;;23.47;11.60;;;;;;;16.25;47.80;101388.20;5156253;56;1141134;-78
2022/04/27 17:47:44;;;;;;;46.65;19.00;;;;;;;16.23;48.31;101388.33;5156015;56;1143129;-76
2022/04/27 17:52:56;;;;;;;54.95;18.87;;;;;;;16.21;48.85;101397.45;5156319;56;1143134;-76
2022/04/27 17:57:58;;;;;;;60.10;22.70;;;;;;;16.17;49.14;101404.41;5154976;56;1143115;-81
2022/04/27 18:03:04;;;;;;;67.50;27.00;;;;;;;16.14;49.60;101409.16;5155870;56;1143348;-80
2022/04/27 18:08:10;;;;;;;58.57;34.30;;;;;;;16.10;50.01;101414.41;5210708;56;1143202;-78
2022/04/27 18:13:16;;;;;;;120.27;70.50;;;;;;;16.02;50.36;101414.23;5219196;56;1143186;-73
2022/04/27 18:18:29;;;;;;;165.40;82.33;;;;;;;15.88;50.39;101411.91;5222578;55;1145243;-76
2022/04/27 18:23:34;;;;;;;176.68;85.53;;;;;;;15.85;50.27;101432.17;5264824;55;1145307;-72
2022/04/27 18:28:41;;;;;;;339.23;133.37;;;;;;;15.79;50.85;101433.53;5283497;55;1145305;-74
2022/04/27 18:33:48;;;;;;;497.23;180.23;;;;;;;15.74;51.51;101432.57;5219047;55;1147350;-75
2022/04/27 18:38:53;;;;;;;313.27;130.67;;;;;;;15.66;51.63;101438.21;5219232;55;1147550;-81
2022/04/27 18:54:45;;;;;;;82.15;31.85;;;;;;;15.30;52.96;101458.08;5219377;56;1147303;-70
2022/04/27 18:59:52;;;;;;;82.00;34.17;;;;;;;15.19;52.52;101457.64;5251981;55;1143199;-69
2022/04/27 19:04:59;;;;;;;42.40;18.40;;;;;;;15.11;52.69;101464.09;5278582;55;1143355;-72
2022/04/27 19:10:08;;;;;;;30.67;13.17;;;;;;;15.09;52.77;101466.03;5180550;56;1143148;-70
2022/04/27 19:15:14;;;;;;;31.00;11.80;;;;;;;15.06;52.69;101466.27;5169242;56;1143118;-71
2022/04/27 19:20:20;;;;;;;24.90;11.63;;;;;;;15.01;52.76;101471.13;5215775;56;1143178;-72
2022/04/27 19:25:26;;;;;;;26.23;10.50;;;;;;;14.94;52.95;101469.94;5219352;56;1143148;-69
2022/04/27 19:30:32;;;;;;;21.17;11.30;;;;;;;14.86;53.12;101469.21;5219723;56;1143146;-69
2022/04/27 19:35:38;;;;;;;18.83;10.03;;;;;;;14.76;53.52;101471.78;5200103;56;1143695;-70
2022/04/27 19:40:44;;;;;;;42.13;20.73;;;;;;;14.60;54.87;101478.44;5174065;56;1143179;-68
2022/04/27 19:51:13;;;;;;;;;;;;;;;14.44;54.90;101486.78;5174629;56;1143438;-69
2022/04/27 19:56:19;;;;;;;32.63;10.77;;;;;;;14.37;54.24;101477.06;5161104;56;974276;-70
2022/04/27 20:01:27;;;;;;;20.17;11.50;;;;;;;14.39;53.21;101479.60;5148136;55;1138960;-70
2022/04/27 20:06:34;;;;;;;18.95;7.92;;;;;;;14.38;53.12;101483.23;5190971;56;1141264;-68
2022/04/27 20:11:40;;;;;;;21.47;9.70;;;;;;;14.39;53.36;101477.79;5200379;56;1138918;-72
2022/04/27 20:16:45;;;;;;;26.03;10.97;;;;;;;14.40;52.88;101480.84;5095288;56;1138977;-70
2022/04/27 20:21:51;;;;;;;19.27;9.77;;;;;;;14.41;53.01;101481.22;5078535;57;1141077;-71
2022/04/27 20:26:57;;;;;;;23.20;9.33;;;;;;;14.45;53.10;101482.31;5182198;56;1139040;-69
2022/04/27 20:32:03;;;;;;;18.33;9.57;;;;;;;14.46;53.21;101480.02;5190206;56;1138990;-70
2022/04/27 20:37:08;;;;;;;16.87;9.60;;;;;;;14.49;53.20;101485.11;5206585;56;1139103;-69
2022/04/27 20:42:14;;;;;;;17.80;8.43;;;;;;;14.51;53.42;101487.16;5240186;56;1139207;-71
2022/04/27 20:47:20;;;;;;;29.03;12.27;;;;;;;14.47;54.08;101488.37;5251921;55;1139163;-70
2022/04/27 20:52:29;;;;;;;24.97;11.47;;;;;;;14.38;54.62;101487.22;5251937;55;1141281;-69
2022/04/27 20:57:39;;;;;;;22.67;10.20;;;;;;;14.22;55.40;101486.72;5252054;55;1141067;-70
2022/04/27 21:02:43;;;;;;;63.57;16.43;;;;;;;14.06;56.21;101489.23;5251421;55;1141169;-71
2022/04/27 21:07:48;;;;;;;21.47;10.43;;;;;;;13.94;56.81;101495.50;5182690;55;1141321;-70
2022/04/27 21:12:54;;;;;;;25.30;12.43;;;;;;;13.81;57.11;101497.39;5171197;56;1141068;-69
2022/04/27 21:18:03;;;;;;;62.47;25.43;;;;;;;13.77;57.46;101511.02;5164988;56;1141145;-70
2022/04/27 21:23:08;;;;;;;47.17;19.87;;;;;;;13.60;57.72;101502.98;5165126;56;1139119;-69
2022/04/27 21:28:13;;;;;;;31.43;12.80;;;;;;;13.56;58.62;101507.70;5163712;56;1217139;-70
2022/04/27 21:33:19;;;;;;;26.57;11.60;;;;;;;13.50;59.07;101505.97;5165209;56;1143099;-70
2022/04/27 21:38:25;;;;;;;23.90;10.83;;;;;;;13.49;59.53;101509.58;5165242;56;1143074;-69
2022/04/27 21:43:31;;;;;;;88.15;26.23;;;;;;;13.45;59.55;101508.10;5165159;56;1143213;-69
2022/04/27 21:48:40;;;;;;;171.03;52.07;;;;;;;13.46;59.61;101511.98;5164995;56;1143195;-71
2022/04/27 21:53:46;;;;;;;90.07;30.57;;;;;;;13.46;59.84;101511.13;5164886;56;1145405;-71
2022/04/27 21:58:52;;;;;;;54.57;23.20;;;;;;;13.46;59.98;101507.14;5165158;56;1143387;-69
2022/04/27 22:04:18;;;;;;;42.57;17.67;;;;;;;13.43;59.92;101502.93;5166970;56;1143090;-70
2022/04/27 22:09:34;;;;;;;31.73;15.70;;;;;;;13.44;59.99;101509.09;5251564;55;1143152;-71
2022/04/27 22:14:38;;;;;;;32.27;16.60;;;;;;;13.43;60.17;101507.39;5251734;55;1143163;-70
2022/04/27 22:19:45;;;;;;;22.37;11.60;;;;;;;13.37;60.25;101517.98;5251683;55;1143158;-69
2022/04/27 22:24:51;;;;;;;19.20;11.73;;;;;;;13.18;60.67;101523.78;5275333;55;1143113;-69
2022/04/27 22:29:57;;;;;;;21.97;13.07;;;;;;;13.01;61.24;101526.30;5278410;55;1143132;-71
2022/04/27 22:35:03;;;;;;;31.33;13.47;;;;;;;12.82;61.73;101521.09;5278433;56;1143105;-69
2022/04/27 22:40:09;;;;;;;27.40;13.83;;;;;;;12.79;62.21;101526.14;5278240;56;1143143;-69
2022/04/27 22:45:15;;;;;;;21.80;13.07;;;;;;;12.77;62.36;101529.38;5278572;55;1143217;-71
2022/04/27 22:50:20;;;;;;;23.57;12.53;;;;;;;12.77;62.46;101528.53;5278273;55;1143158;-69
2022/04/27 22:55:27;;;;;;;19.13;12.30;;;;;;;12.74;62.79;101520.78;5278494;56;1143189;-69
2022/04/27 23:00:33;;;;;;;18.83;12.00;;;;;;;12.67;62.94;101525.69;5278421;56;1143156;-71
2022/04/27 23:05:41;;;;;;;18.37;12.50;;;;;;;12.51;63.13;101524.58;5246511;56;1143204;-72
2022/04/27 23:16:22;;;;;;;18.00;11.83;;;;;;;12.32;63.75;101532.11;5190749;57;1143127;-71
2022/04/27 23:21:24;;;;;;;19.50;12.40;;;;;;;12.15;64.60;101537.23;5189260;56;1143074;-70
2022/04/27 23:26:29;;;;;;;17.73;11.20;;;;;;;12.15;64.60;101537.23;5164740;56;1143340;-71
2022/04/27 23:31:35;;;;;;;25.40;13.50;;;;;;;12.13;64.59;101535.64;5164770;56;1143152;-71
2022/04/27 23:36:40;;;;;;;29.75;13.50;;;;;;;12.03;64.70;101535.42;5164535;56;1143195;-70
2022/04/27 23:41:46;;;;;;;23.97;13.10;;;;;;;12.04;65.07;101531.82;5164687;56;1143151;-71